Time;durP1;ratioP1;P1;durP2;ratioP2;P2;SDS_P1;SDS_P2;PMS_P1;PMS_P2;Temp;Humidity;BMP_temperature;BMP_pressure;BME280_temperature;BME280_humidity;BME280_pressure;Samples;Min_cycle;Max_cycle;Signal;HPM_P1;HPM_P2
2023/12/20 00:00:22;;;;;;;1.25;1.00;;;8.90;99.90;;;;;;5009128;28;20187;-64
2023/12/20 00:02:48;;;;;;;2.25;1.00;;;8.90;99.90;;;;;;5002815;28;20442;-63
2023/12/20 00:05:14;;;;;;;1.35;1.05;;;9.00;99.90;;;;;;5009399;28;20198;-63
2023/12/20 00:07:42;;;;;;;1.02;0.93;;;8.90;99.90;;;;;;5011971;28;20186;-65
2023/12/20 00:10:08;;;;;;;1.75;1.20;;;8.90;99.90;;;;;;4992824;28;20172;-64
2023/12/20 00:12:34;;;;;;;0.93;0.82;;;9.00;99.90;;;;;;5009065;28;20188;-62
2023/12/20 00:15:02;;;;;;;1.25;1.10;;;9.00;99.90;;;;;;5010206;28;20196;-63
2023/12/20 00:17:29;;;;;;;1.27;1.02;;;9.00;99.90;;;;;;4995056;28;20263;-63
2023/12/20 00:19:55;;;;;;;1.15;0.90;;;9.00;99.90;;;;;;5011401;28;20180;-63
2023/12/20 00:22:21;;;;;;;1.10;0.93;;;9.00;99.90;;;;;;4997611;28;20269;-64
2023/12/20 00:24:46;;;;;;;0.90;0.80;;;9.00;99.90;;;;;;4999373;28;20204;-63
2023/12/20 00:27:12;;;;;;;1.05;0.93;;;9.00;99.90;;;;;;4994690;28;20183;-63
2023/12/20 00:29:37;;;;;;;1.70;1.00;;;9.00;99.90;;;;;;5014228;28;20339;-63
2023/12/20 00:32:04;;;;;;;1.30;1.10;;;9.00;99.90;;;;;;5011783;28;20207;-63
2023/12/20 00:34:29;;;;;;;0.80;0.70;;;9.10;99.90;;;;;;5013637;28;20211;-64
2023/12/20 00:36:57;;;;;;;1.35;0.90;;;9.10;99.90;;;;;;4990794;28;20237;-64
2023/12/20 00:39:24;;;;;;;1.02;0.93;;;9.10;99.90;;;;;;5005330;28;20211;-64
2023/12/20 00:41:49;;;;;;;1.00;0.80;;;9.10;99.90;;;;;;5007423;28;20215;-64
2023/12/20 00:44:18;;;;;;;1.00;0.90;;;9.10;99.90;;;;;;4993995;28;20200;-64
2023/12/20 00:46:44;;;;;;;1.00;0.90;;;9.10;99.90;;;;;;4995159;28;20258;-64
2023/12/20 00:49:09;;;;;;;1.33;0.90;;;9.10;99.90;;;;;;4993184;28;20290;-65
2023/12/20 00:51:35;;;;;;;1.00;0.90;;;9.10;99.90;;;;;;5006350;28;20210;-65
2023/12/20 00:54:00;;;;;;;1.00;0.88;;;9.10;99.90;;;;;;5011238;28;20210;-64
2023/12/20 00:56:26;;;;;;;1.00;0.82;;;9.10;99.90;;;;;;4990976;28;20214;-63
2023/12/20 00:58:54;;;;;;;1.10;0.82;;;9.10;99.90;;;;;;4994459;28;20250;-63
2023/12/20 01:01:19;;;;;;;0.82;0.82;;;9.10;99.90;;;;;;4987948;28;20191;-64
2023/12/20 01:03:45;;;;;;;0.82;0.70;;;9.20;99.90;;;;;;5002191;28;20185;-63
2023/12/20 01:06:13;;;;;;;0.70;0.70;;;9.10;99.90;;;;;;5000103;28;20175;-64
2023/12/20 01:08:39;;;;;;;1.15;0.88;;;9.20;99.90;;;;;;5003263;28;20182;-63
2023/12/20 01:11:05;;;;;;;0.98;0.88;;;9.10;99.90;;;;;;5005552;28;20175;-64
2023/12/20 01:13:31;;;;;;;0.75;0.73;;;9.10;99.90;;;;;;4989355;28;20179;-63
2023/12/20 01:15:59;;;;;;;1.20;1.10;;;9.10;99.90;;;;;;5007832;28;20189;-63
2023/12/20 01:18:24;;;;;;;1.42;1.10;;;9.00;99.90;;;;;;4990957;28;20187;-63
2023/12/20 01:20:54;;;;;;;1.38;1.20;;;9.10;99.90;;;;;;4996194;28;20207;-63
2023/12/20 01:23:20;;;;;;;1.98;1.33;;;9.10;99.90;;;;;;4991629;28;20175;-65
2023/12/20 01:25:46;;;;;;;1.95;1.60;;;9.10;99.90;;;;;;5004628;28;20246;-64
2023/12/20 01:28:13;;;;;;;1.98;1.65;;;9.10;99.90;;;;;;4982474;28;20179;-64
2023/12/20 01:30:39;;;;;;;2.33;1.77;;;9.10;99.90;;;;;;5000306;28;20267;-65
2023/12/20 01:33:05;;;;;;;2.30;2.10;;;9.10;99.90;;;;;;5010413;28;20265;-63
2023/12/20 01:35:31;;;;;;;2.80;2.28;;;9.20;99.90;;;;;;5006606;28;20182;-63
2023/12/20 01:37:56;;;;;;;3.95;2.63;;;9.20;99.90;;;;;;5005748;28;20286;-63
2023/12/20 01:40:22;;;;;;;2.75;2.50;;;9.20;99.90;;;;;;4996479;28;20253;-64
2023/12/20 01:42:58;;;;;;;3.45;2.92;;;9.20;99.90;;;;;;4987716;28;20207;-64
2023/12/20 01:45:28;;;;;;;4.25;3.50;;;9.20;99.90;;;;;;5010180;28;20178;-66
2023/12/20 01:47:57;;;;;;;6.22;3.90;;;9.30;99.90;;;;;;4994792;28;20263;-64
2023/12/20 01:50:23;;;;;;;4.85;4.20;;;9.30;99.90;;;;;;4994991;28;20222;-65
2023/12/20 01:52:52;;;;;;;6.07;4.30;;;9.20;99.90;;;;;;4990893;28;20238;-64
2023/12/20 01:55:19;;;;;;;5.55;4.28;;;9.30;99.90;;;;;;5004977;28;20214;-64
2023/12/20 01:57:47;;;;;;;5.53;4.18;;;9.20;99.90;;;;;;5006034;28;20175;-64
2023/12/20 02:00:14;;;;;;;6.07;4.85;;;9.30;99.90;;;;;;5009380;28;20187;-65
2023/12/20 02:02:40;;;;;;;5.28;4.25;;;9.30;99.90;;;;;;4992506;28;20211;-64
2023/12/20 02:05:07;;;;;;;6.50;4.38;;;9.30;99.90;;;;;;4988535;28;20211;-64
2023/12/20 02:07:35;;;;;;;6.63;4.80;;;9.30;99.90;;;;;;4985337;28;20233;-65
2023/12/20 02:10:06;;;;;;;6.25;4.22;;;9.30;99.90;;;;;;4993056;28;20190;-64
2023/12/20 02:12:32;;;;;;;5.93;3.97;;;9.30;99.90;;;;;;5004383;28;20265;-66
2023/12/20 02:14:59;;;;;;;5.95;4.68;;;9.20;99.90;;;;;;4990056;28;20180;-64
2023/12/20 02:17:29;;;;;;;5.90;4.82;;;9.20;99.90;;;;;;4991629;28;20187;-66
2023/12/20 02:19:57;;;;;;;7.68;5.00;;;9.20;99.90;;;;;;4993016;28;20209;-65
2023/12/20 02:22:25;;;;;;;6.90;5.47;;;9.10;99.90;;;;;;5004169;28;20206;-64
2023/12/20 02:24:51;;;;;;;8.68;6.15;;;9.10;99.90;;;;;;5008273;28;20187;-67
2023/12/20 02:27:19;;;;;;;6.90;5.32;;;9.10;99.90;;;;;;5003703;28;20191;-65
2023/12/20 02:29:49;;;;;;;9.13;5.25;;;9.10;99.90;;;;;;4989677;28;20237;-65
2023/12/20 02:32:18;;;;;;;7.80;5.32;;;9.00;99.90;;;;;;5012857;28;20168;-65
2023/12/20 02:34:46;;;;;;;6.83;4.07;;;8.90;99.90;;;;;;5010451;28;20421;-65
2023/12/20 02:37:12;;;;;;;5.60;3.40;;;8.80;99.90;;;;;;5006908;28;20171;-64
2023/12/20 02:39:37;;;;;;;4.50;2.63;;;8.80;99.90;;;;;;5013560;28;20190;-64
2023/12/20 02:42:03;;;;;;;7.00;2.97;;;8.70;99.90;;;;;;5011048;28;20313;-64
2023/12/20 02:44:31;;;;;;;5.97;2.50;;;8.60;99.90;;;;;;5012042;28;20203;-65
2023/12/20 02:46:57;;;;;;;2.37;1.97;;;8.60;99.90;;;;;;5011983;28;20183;-64
2023/12/20 02:49:22;;;;;;;3.93;2.13;;;8.40;99.90;;;;;;5002368;28;20182;-65
2023/12/20 02:51:48;;;;;;;4.40;1.97;;;8.40;99.90;;;;;;5002786;28;20191;-65
2023/12/20 02:54:16;;;;;;;5.97;1.77;;;8.30;99.90;;;;;;5009982;28;20232;-64
2023/12/20 02:56:44;;;;;;;4.53;1.80;;;8.20;99.90;;;;;;5001656;28;20211;-64
2023/12/20 02:59:10;;;;;;;2.73;1.60;;;8.10;99.90;;;;;;5012364;28;20188;-64
2023/12/20 03:01:41;;;;;;;5.90;1.80;;;8.10;99.90;;;;;;5011773;28;20198;-64
2023/12/20 03:04:11;;;;;;;3.67;1.40;;;8.00;99.90;;;;;;4996505;28;20270;-65
2023/12/20 03:06:39;;;;;;;4.77;1.80;;;8.00;99.90;;;;;;5009620;28;20200;-64
2023/12/20 03:09:05;;;;;;;2.90;1.60;;;8.00;99.90;;;;;;5008181;28;20175;-65
2023/12/20 03:11:33;;;;;;;2.70;1.23;;;8.00;99.90;;;;;;5011563;28;20247;-65
2023/12/20 03:13:59;;;;;;;3.70;1.40;;;7.90;99.90;;;;;;5011834;28;20422;-65
2023/12/20 03:16:25;;;;;;;5.17;1.53;;;7.80;99.90;;;;;;5009588;28;20195;-64
2023/12/20 03:18:51;;;;;;;3.17;1.37;;;7.80;99.90;;;;;;5006416;28;20247;-64
2023/12/20 03:21:16;;;;;;;4.63;1.30;;;7.80;99.90;;;;;;5002319;28;20291;-64
2023/12/20 03:23:42;;;;;;;3.23;1.30;;;7.80;99.90;;;;;;4997359;28;20183;-64
2023/12/20 03:26:10;;;;;;;3.07;1.20;;;7.80;99.90;;;;;;5005126;28;20207;-65
2023/12/20 03:28:36;;;;;;;5.23;1.30;;;7.70;99.90;;;;;;5006098;28;20187;-65
2023/12/20 03:31:02;;;;;;;5.83;1.60;;;7.80;99.90;;;;;;5009724;28;20204;-65
2023/12/20 03:33:30;;;;;;;4.73;1.40;;;7.70;99.90;;;;;;5009128;28;20192;-65
2023/12/20 03:36:01;;;;;;;6.40;1.83;;;7.80;99.90;;;;;;4987716;28;20187;-65
2023/12/20 03:38:28;;;;;;;3.63;1.50;;;7.80;99.90;;;;;;4989513;28;20303;-66
2023/12/20 03:40:54;;;;;;;4.70;1.80;;;7.80;99.90;;;;;;4995079;28;20206;-65
2023/12/20 03:43:19;;;;;;;5.57;1.63;;;7.80;99.90;;;;;;5007020;28;20188;-66
2023/12/20 03:45:45;;;;;;;6.40;1.97;;;7.90;99.90;;;;;;4984798;28;20243;-65
2023/12/20 03:48:11;;;;;;;5.97;1.70;;;7.90;99.90;;;;;;5000972;28;20209;-65
2023/12/20 03:50:36;;;;;;;6.00;2.00;;;7.90;99.90;;;;;;5014950;28;20179;-65
2023/12/20 03:53:03;;;;;;;4.17;1.60;;;7.90;99.90;;;;;;5006872;28;20258;-65
2023/12/20 03:55:29;;;;;;;4.93;1.33;;;7.90;99.90;;;;;;5001098;28;20213;-65
2023/12/20 03:57:55;;;;;;;4.57;1.90;;;7.90;99.90;;;;;;5009847;28;20187;-65
2023/12/20 04:00:22;;;;;;;5.83;1.70;;;7.90;99.90;;;;;;4993474;28;20238;-65
2023/12/20 04:02:48;;;;;;;4.43;1.80;;;8.00;99.90;;;;;;5002018;28;20211;-65
2023/12/20 04:05:14;;;;;;;5.07;1.60;;;8.00;99.90;;;;;;5021173;28;20168;-65
2023/12/20 04:07:39;;;;;;;5.07;1.73;;;8.00;99.90;;;;;;5009078;28;20279;-65
2023/12/20 04:10:05;;;;;;;4.53;1.90;;;8.00;99.90;;;;;;5001749;28;20202;-65
2023/12/20 04:12:31;;;;;;;4.90;1.60;;;8.00;99.90;;;;;;4997537;28;20183;-64
2023/12/20 04:14:57;;;;;;;6.20;2.13;;;8.00;99.90;;;;;;5011120;28;20285;-64
2023/12/20 04:17:23;;;;;;;3.60;1.30;;;8.00;99.90;;;;;;4995653;28;20599;-64
2023/12/20 04:19:51;;;;;;;6.33;2.03;;;8.10;99.90;;;;;;4997473;28;20425;-65
2023/12/20 04:22:20;;;;;;;4.27;1.70;;;8.10;99.90;;;;;;5011668;28;20214;-64
2023/12/20 04:24:50;;;;;;;4.47;1.97;;;8.10;99.90;;;;;;4995298;28;20290;-64
2023/12/20 04:27:18;;;;;;;5.07;1.77;;;8.10;99.90;;;;;;4996847;28;20279;-64
2023/12/20 04:29:43;;;;;;;3.97;1.70;;;8.10;99.90;;;;;;5002100;28;20190;-64
2023/12/20 04:32:09;;;;;;;7.83;1.63;;;8.10;99.90;;;;;;4994556;28;20353;-65
2023/12/20 04:34:34;;;;;;;8.03;1.80;;;8.10;99.90;;;;;;5013205;28;20178;-66
2023/12/20 04:37:01;;;;;;;3.93;1.90;;;8.10;99.90;;;;;;5012043;28;20269;-64
2023/12/20 04:39:27;;;;;;;3.97;1.90;;;8.10;99.90;;;;;;5017921;28;20187;-64
2023/12/20 04:41:53;;;;;;;5.23;1.90;;;8.10;99.90;;;;;;4993544;28;20226;-64
2023/12/20 04:44:18;;;;;;;3.20;1.70;;;8.20;99.90;;;;;;5007698;28;20195;-64
2023/12/20 04:46:46;;;;;;;4.10;1.70;;;8.20;99.90;;;;;;5002463;28;20436;-64
2023/12/20 04:49:12;;;;;;;6.07;1.80;;;8.10;99.90;;;;;;5005750;28;20179;-65
2023/12/20 04:51:38;;;;;;;5.53;1.83;;;8.20;99.90;;;;;;4987200;28;20225;-64
2023/12/20 04:54:03;;;;;;;7.20;1.73;;;8.10;99.90;;;;;;5008028;28;20262;-64
2023/12/20 04:56:29;;;;;;;7.23;2.43;;;8.10;99.90;;;;;;4990814;28;20211;-64
2023/12/20 04:58:55;;;;;;;6.23;1.97;;;8.10;99.90;;;;;;5009594;28;20199;-64
2023/12/20 05:01:22;;;;;;;4.30;1.80;;;8.20;99.90;;;;;;5004085;28;20228;-64
2023/12/20 05:03:48;;;;;;;5.73;2.67;;;8.20;99.90;;;;;;5011282;28;20170;-64
2023/12/20 05:06:14;;;;;;;6.47;2.10;;;8.20;99.90;;;;;;5010587;28;20210;-63
2023/12/20 05:08:40;;;;;;;7.90;2.67;;;8.20;99.90;;;;;;5005751;28;20190;-64
2023/12/20 05:11:09;;;;;;;5.77;2.03;;;8.10;99.90;;;;;;5000780;28;20182;-64
2023/12/20 05:13:34;;;;;;;4.87;2.10;;;8.10;99.90;;;;;;4992608;28;20263;-64
2023/12/20 05:16:00;;;;;;;6.17;2.20;;;8.10;99.90;;;;;;4991572;28;20219;-64
2023/12/20 05:18:28;;;;;;;7.23;2.10;;;8.00;99.90;;;;;;5008257;28;20183;-64
2023/12/20 05:20:55;;;;;;;5.13;2.00;;;8.00;99.90;;;;;;5010880;28;20238;-64
2023/12/20 05:23:21;;;;;;;3.63;1.70;;;8.00;99.90;;;;;;5008732;28;20180;-64
2023/12/20 05:25:49;;;;;;;3.83;1.80;;;8.00;99.90;;;;;;4993604;28;20380;-64
2023/12/20 05:28:15;;;;;;;4.67;1.90;;;8.00;99.90;;;;;;5010722;28;20190;-64
2023/12/20 05:30:41;;;;;;;8.53;2.60;;;7.90;99.90;;;;;;5008613;28;20203;-65
2023/12/20 05:33:09;;;;;;;4.70;2.20;;;7.90;99.90;;;;;;5002874;28;20187;-64
2023/12/20 05:35:34;;;;;;;8.33;2.50;;;7.90;99.90;;;;;;5004915;28;20199;-64
2023/12/20 05:38:00;;;;;;;6.27;2.10;;;7.90;99.90;;;;;;4995168;28;20179;-63
2023/12/20 05:40:26;;;;;;;7.13;2.33;;;7.80;99.90;;;;;;5000544;28;20204;-64
2023/12/20 05:42:53;;;;;;;7.23;2.67;;;7.80;99.90;;;;;;4993304;28;20203;-65
2023/12/20 05:45:19;;;;;;;5.93;2.20;;;7.80;99.90;;;;;;4990856;28;20185;-64
2023/12/20 05:47:45;;;;;;;8.70;2.20;;;7.80;99.90;;;;;;5007877;28;20199;-64
2023/12/20 05:50:11;;;;;;;6.20;3.07;;;7.70;99.90;;;;;;4990770;28;20183;-64
2023/12/20 05:52:41;;;;;;;5.63;2.40;;;7.70;99.90;;;;;;4995440;28;20171;-65
2023/12/20 05:55:29;;;;;;;;;;;;;;;;;;;;;
2023/12/20 05:57:54;;;;;;;6.00;2.23;;;7.70;99.90;;;;;;4988151;28;20188;-64
2023/12/20 06:00:20;;;;;;;5.63;2.37;;;7.80;99.90;;;;;;5005192;28;20266;-64
2023/12/20 06:02:46;;;;;;;5.17;2.23;;;7.70;99.90;;;;;;5010759;28;20214;-64
2023/12/20 06:05:12;;;;;;;7.33;2.53;;;7.70;99.90;;;;;;5005809;28;20183;-65
2023/12/20 06:07:37;;;;;;;5.10;2.40;;;7.70;99.90;;;;;;5003418;28;20475;-64
2023/12/20 06:10:03;;;;;;;6.13;2.23;;;7.70;99.90;;;;;;5009119;28;20179;-64
2023/12/20 06:12:32;;;;;;;4.80;2.20;;;7.70;99.90;;;;;;5012294;28;20187;-63
2023/12/20 06:14:57;;;;;;;5.97;2.13;;;7.70;99.90;;;;;;5005392;28;20218;-64
2023/12/20 06:17:23;;;;;;;5.67;2.03;;;7.70;99.90;;;;;;5001282;28;20180;-63
2023/12/20 06:19:50;;;;;;;5.17;2.23;;;7.70;99.90;;;;;;4994649;28;20187;-64
2023/12/20 06:22:16;;;;;;;4.73;2.10;;;7.80;99.90;;;;;;4993202;28;20211;-63
2023/12/20 06:24:42;;;;;;;6.07;2.23;;;7.80;99.90;;;;;;4993040;28;20407;-64
2023/12/20 06:27:07;;;;;;;8.30;2.20;;;7.70;99.90;;;;;;5009181;28;20186;-65
2023/12/20 06:29:34;;;;;;;5.47;2.23;;;7.70;99.90;;;;;;5007313;28;20182;-63
2023/12/20 06:32:02;;;;;;;5.97;2.20;;;7.70;99.90;;;;;;5009795;28;20183;-64
2023/12/20 06:34:28;;;;;;;4.77;2.03;;;7.70;99.90;;;;;;4998196;28;20257;-63
2023/12/20 06:36:55;;;;;;;5.87;2.43;;;7.80;99.90;;;;;;5006678;28;20273;-64
2023/12/20 06:39:21;;;;;;;3.80;2.20;;;7.90;99.90;;;;;;4991524;28;20184;-63
2023/12/20 06:41:51;;;;;;;7.00;2.50;;;7.80;99.90;;;;;;4992708;28;20203;-63
2023/12/20 06:44:17;;;;;;;6.70;2.20;;;7.90;99.90;;;;;;5011339;28;20186;-63
2023/12/20 06:46:43;;;;;;;7.10;2.33;;;7.90;99.90;;;;;;5013279;28;20199;-65
2023/12/20 06:49:12;;;;;;;6.17;2.07;;;8.00;99.90;;;;;;5010455;28;20190;-63
2023/12/20 06:51:37;;;;;;;6.50;2.33;;;7.90;99.90;;;;;;5005951;28;20179;-64
2023/12/20 06:54:03;;;;;;;7.30;2.20;;;7.90;99.90;;;;;;5010773;28;20176;-61
2023/12/20 06:56:29;;;;;;;7.40;2.63;;;8.00;99.90;;;;;;5010468;28;20182;-62
2023/12/20 06:58:54;;;;;;;7.70;2.20;;;8.00;99.90;;;;;;5012908;28;20204;-63
2023/12/20 07:01:20;;;;;;;6.37;2.37;;;8.00;99.90;;;;;;4993497;28;20216;-63
2023/12/20 07:03:45;;;;;;;6.77;2.47;;;8.00;99.90;;;;;;4997500;28;20210;-63
2023/12/20 07:06:15;;;;;;;4.10;2.03;;;8.10;99.90;;;;;;5009230;28;20186;-64
2023/12/20 07:08:41;;;;;;;4.70;2.20;;;8.10;99.90;;;;;;5005398;28;20195;-64
2023/12/20 07:11:06;;;;;;;6.10;2.30;;;8.10;99.90;;;;;;5010014;28;20265;-64
2023/12/20 07:13:32;;;;;;;6.77;2.67;;;8.20;99.90;;;;;;4995366;28;20183;-64
2023/12/20 07:15:58;;;;;;;5.10;2.20;;;8.10;99.90;;;;;;5007418;28;20270;-64
2023/12/20 07:18:23;;;;;;;4.73;2.13;;;8.10;99.90;;;;;;5020030;23;20520;-64
2023/12/20 07:20:51;;;;;;;7.63;2.80;;;8.30;99.90;;;;;;4974036;28;20420;-64
2023/12/20 07:23:20;;;;;;;6.20;2.10;;;8.20;99.90;;;;;;4974099;28;20263;-64
2023/12/20 07:25:45;;;;;;;9.75;2.35;;;8.20;99.90;;;;;;4972552;28;20242;-64
2023/12/20 07:28:11;;;;;;;7.27;2.57;;;8.20;99.90;;;;;;4974505;28;20177;-64
2023/12/20 07:30:39;;;;;;;8.37;2.20;;;8.20;99.90;;;;;;4976271;28;20206;-63
2023/12/20 07:33:08;;;;;;;6.10;2.20;;;8.20;99.90;;;;;;4976017;28;20242;-65
2023/12/20 07:35:34;;;;;;;8.60;2.63;;;8.20;99.90;;;;;;4975020;28;20196;-64
2023/12/20 07:38:00;;;;;;;7.07;2.30;;;8.30;99.90;;;;;;4977452;28;20203;-71
2023/12/20 07:40:25;;;;;;;11.10;2.90;;;8.30;99.90;;;;;;4975804;28;20183;-71
2023/12/20 07:42:51;;;;;;;7.27;2.30;;;8.30;99.90;;;;;;4975725;28;20303;-72
2023/12/20 07:45:16;;;;;;;5.83;2.20;;;8.30;99.90;;;;;;4978063;28;20200;-71
2023/12/20 07:47:44;;;;;;;8.17;3.20;;;8.30;99.90;;;;;;4969646;28;20189;-71
2023/12/20 07:50:10;;;;;;;6.00;2.27;;;8.30;99.90;;;;;;4969773;28;20463;-71
2023/12/20 07:52:35;;;;;;;9.63;2.70;;;8.30;99.90;;;;;;4976546;28;20179;-70
2023/12/20 07:55:01;;;;;;;5.60;2.10;;;8.40;99.90;;;;;;4976353;28;20179;-69
2023/12/20 07:57:30;;;;;;;8.00;2.50;;;8.30;99.90;;;;;;4976293;28;20196;-70
2023/12/20 07:59:58;;;;;;;6.40;2.20;;;8.30;99.90;;;;;;4976353;28;20261;-71
2023/12/20 08:02:24;;;;;;;6.57;2.33;;;8.30;99.90;;;;;;4976438;28;20204;-70
2023/12/20 08:04:51;;;;;;;8.67;2.20;;;8.30;99.90;;;;;;4976482;28;20237;-71
2023/12/20 08:07:17;;;;;;;6.40;2.03;;;8.40;99.90;;;;;;4957778;28;20183;-72
2023/12/20 08:09:43;;;;;;;8.57;2.20;;;8.40;99.90;;;;;;4975712;28;20175;-71
2023/12/20 08:12:11;;;;;;;8.30;3.03;;;8.40;99.90;;;;;;4976199;28;20230;-71
2023/12/20 08:14:39;;;;;;;7.63;2.37;;;8.40;99.90;;;;;;4976360;28;20192;-71
2023/12/20 08:17:09;;;;;;;7.23;2.43;;;8.40;99.90;;;;;;4976184;28;20369;-71
2023/12/20 08:19:37;;;;;;;7.57;2.20;;;8.40;99.90;;;;;;4976347;28;20358;-71
2023/12/20 08:22:05;;;;;;;7.97;2.50;;;8.40;99.90;;;;;;4976206;28;20192;-71
2023/12/20 08:24:31;;;;;;;9.48;2.42;;;8.40;99.90;;;;;;4976475;28;20184;-72
2023/12/20 08:26:56;;;;;;;6.23;2.30;;;8.40;99.90;;;;;;4975203;28;20188;-71
2023/12/20 08:29:22;;;;;;;6.47;2.37;;;8.50;99.90;;;;;;4976128;28;20199;-70
2023/12/20 08:31:53;;;;;;;7.10;2.50;;;8.50;99.90;;;;;;4975977;28;20192;-71
2023/12/20 08:34:19;;;;;;;7.13;2.50;;;8.50;99.90;;;;;;4975926;28;20187;-70
2023/12/20 08:36:47;;;;;;;6.30;2.50;;;8.60;99.90;;;;;;4975699;28;20208;-72
2023/12/20 08:39:13;;;;;;;8.73;2.40;;;8.50;99.90;;;;;;4986559;28;20188;-72
2023/12/20 08:41:41;;;;;;;9.07;2.78;;;8.50;99.90;;;;;;4972537;28;20199;-72
2023/12/20 08:44:06;;;;;;;7.03;2.30;;;8.50;99.90;;;;;;4976467;28;20255;-70
2023/12/20 08:46:32;;;;;;;6.50;2.17;;;8.60;99.90;;;;;;4979905;28;20180;-72
2023/12/20 08:48:57;;;;;;;5.60;2.20;;;8.60;99.90;;;;;;4987660;28;20207;-71
2023/12/20 08:51:25;;;;;;;6.97;2.40;;;8.50;99.90;;;;;;4979617;28;20176;-72
2023/12/20 08:53:51;;;;;;;7.30;2.63;;;8.60;99.90;;;;;;4974841;28;20188;-71
2023/12/20 08:56:17;;;;;;;10.03;2.47;;;8.60;99.90;;;;;;4977284;28;20298;-70
2023/12/20 08:58:43;;;;;;;7.97;2.30;;;8.60;99.90;;;;;;4987695;28;20184;-70
2023/12/20 09:01:11;;;;;;;6.00;2.33;;;8.70;99.90;;;;;;4976564;28;20214;-70
2023/12/20 09:03:37;;;;;;;7.03;2.17;;;8.70;99.90;;;;;;4979536;28;20290;-70
2023/12/20 09:06:03;;;;;;;4.90;2.15;;;8.70;99.90;;;;;;4971697;28;20243;-70
2023/12/20 09:08:29;;;;;;;7.65;2.05;;;8.70;99.90;;;;;;4988914;28;20191;-69
2023/12/20 09:10:54;;;;;;;5.70;2.08;;;8.80;99.90;;;;;;4975689;28;20176;-70
2023/12/20 09:13:22;;;;;;;6.85;2.10;;;8.90;99.90;;;;;;4978960;28;20190;-69
2023/12/20 09:15:49;;;;;;;7.53;2.50;;;8.90;99.90;;;;;;4981536;28;20186;-67
2023/12/20 09:18:15;;;;;;;6.07;1.90;;;8.90;99.90;;;;;;4980424;28;20179;-69
2023/12/20 09:20:43;;;;;;;5.57;2.15;;;8.90;99.90;;;;;;4989210;28;20194;-70
2023/12/20 09:23:13;;;;;;;6.82;2.30;;;9.00;99.90;;;;;;4979014;28;20235;-69
2023/12/20 09:25:41;;;;;;;7.25;2.15;;;8.90;99.90;;;;;;4974890;28;20179;-69
2023/12/20 09:28:06;;;;;;;7.07;2.08;;;9.00;99.90;;;;;;4975155;28;20178;-70
2023/12/20 09:30:37;;;;;;;5.38;2.08;;;9.00;99.90;;;;;;4975125;28;20200;-70
2023/12/20 09:33:03;;;;;;;7.82;2.33;;;9.00;99.90;;;;;;4975155;28;20237;-69
2023/12/20 09:35:31;;;;;;;5.85;2.03;;;9.00;99.90;;;;;;4975233;28;20196;-70
2023/12/20 09:37:59;;;;;;;5.32;2.20;;;9.00;99.90;;;;;;4964518;28;20433;-69
2023/12/20 09:40:28;;;;;;;5.70;2.00;;;9.00;99.90;;;;;;4975186;28;20179;-70
2023/12/20 09:42:58;;;;;;;9.50;2.45;;;9.00;99.90;;;;;;4974838;28;20227;-70
2023/12/20 09:45:24;;;;;;;5.72;1.95;;;9.00;99.90;;;;;;4975133;28;20180;-70
2023/12/20 09:47:57;;;;;;;10.40;2.25;;;9.00;99.90;;;;;;4974747;28;20198;-70
2023/12/20 09:50:23;;;;;;;6.72;2.08;;;9.00;99.90;;;;;;4974726;28;20222;-70
2023/12/20 09:52:58;;;;;;;5.13;2.00;;;9.00;99.90;;;;;;4974658;28;20188;-69
2023/12/20 09:55:25;;;;;;;9.60;2.22;;;9.00;99.90;;;;;;4974741;28;20250;-70
2023/12/20 09:57:53;;;;;;;11.20;2.40;;;9.00;99.90;;;;;;4974797;28;20191;-70
2023/12/20 10:00:26;;;;;;;6.97;2.10;;;9.00;99.90;;;;;;4974711;28;20424;-67
2023/12/20 10:03:06;;;;;;;7.20;2.20;;;9.00;99.90;;;;;;4974482;28;20218;-70
2023/12/20 10:05:34;;;;;;;6.53;2.20;;;9.00;99.90;;;;;;4974944;28;20227;-70
2023/12/20 10:08:00;;;;;;;6.43;2.03;;;9.00;99.90;;;;;;4986895;28;20230;-71
2023/12/20 10:10:27;;;;;;;5.77;2.10;;;9.10;99.90;;;;;;4970569;28;20173;-70
2023/12/20 10:13:05;;;;;;;6.53;2.33;;;9.10;99.90;;;;;;4972834;28;20180;-71
2023/12/20 10:15:33;;;;;;;7.35;2.20;;;9.10;99.90;;;;;;4974799;28;20227;-74
2023/12/20 10:17:59;;;;;;;5.60;2.00;;;9.00;99.90;;;;;;4974468;28;20199;-71
2023/12/20 10:20:29;;;;;;;4.78;1.88;;;9.10;99.90;;;;;;4974798;28;20203;-72
2023/12/20 10:22:56;;;;;;;8.18;2.40;;;9.10;99.90;;;;;;4974689;28;20254;-70
2023/12/20 10:25:22;;;;;;;6.82;2.55;;;9.10;99.90;;;;;;4985609;28;20180;-71
2023/12/20 10:27:49;;;;;;;10.82;2.20;;;9.10;99.90;;;;;;4974676;28;20180;-71
2023/12/20 10:30:15;;;;;;;8.13;2.10;;;9.10;99.90;;;;;;4974483;28;20184;-70
2023/12/20 10:32:40;;;;;;;7.35;2.30;;;9.10;99.90;;;;;;4978982;28;20285;-71
2023/12/20 10:35:09;;;;;;;9.57;2.67;;;9.10;99.90;;;;;;4974517;28;20188;-71
2023/12/20 10:37:37;;;;;;;7.10;2.40;;;9.10;99.90;;;;;;4974183;28;20318;-71
2023/12/20 10:40:05;;;;;;;7.53;2.15;;;9.20;99.90;;;;;;4974721;28;20321;-71
2023/12/20 10:42:33;;;;;;;7.97;2.08;;;9.20;99.90;;;;;;4974606;28;20196;-71
2023/12/20 10:45:00;;;;;;;5.78;2.00;;;9.20;99.90;;;;;;4974438;28;20222;-70
2023/12/20 10:47:31;;;;;;;7.50;2.33;;;9.20;99.90;;;;;;4974331;28;20176;-71
2023/12/20 10:49:59;;;;;;;8.15;2.17;;;9.20;99.90;;;;;;4976707;28;20215;-69
2023/12/20 10:52:29;;;;;;;10.02;2.42;;;9.20;99.90;;;;;;4977929;28;20200;-70
2023/12/20 10:54:54;;;;;;;6.97;2.08;;;9.30;99.90;;;;;;4977966;28;20188;-70
2023/12/20 10:57:22;;;;;;;8.07;2.17;;;9.30;99.90;;;;;;4977832;28;20271;-72
2023/12/20 10:59:51;;;;;;;6.85;2.10;;;9.30;99.90;;;;;;4978490;28;20186;-72
2023/12/20 11:02:17;;;;;;;6.10;2.10;;;9.30;99.90;;;;;;4981632;28;20215;-71
2023/12/20 11:04:55;;;;;;;7.53;2.15;;;9.50;99.90;;;;;;4988796;28;20306;-71
2023/12/20 11:07:35;;;;;;;6.18;2.03;;;9.30;99.90;;;;;;4978823;28;20266;-70
2023/12/20 11:10:23;;;;;;;7.25;2.00;;;9.40;99.90;;;;;;4977826;28;20186;-68
2023/12/20 11:12:56;;;;;;;5.65;2.08;;;9.40;99.90;;;;;;4977805;28;20172;-71
2023/12/20 11:15:21;;;;;;;5.60;2.00;;;9.40;99.90;;;;;;4975558;28;20196;-71
2023/12/20 11:17:56;;;;;;;6.85;2.03;;;9.50;99.90;;;;;;4965444;28;20203;-71
2023/12/20 11:20:35;;;;;;;5.50;1.95;;;9.40;99.90;;;;;;4977136;28;20585;-71
2023/12/20 11:23:01;;;;;;;5.28;2.10;;;9.30;99.90;;;;;;4977550;28;20208;-71
2023/12/20 11:25:27;;;;;;;6.88;1.80;;;9.40;99.90;;;;;;4980264;28;20291;-70
2023/12/20 11:28:13;;;;;;;7.22;2.03;;;9.40;99.90;;;;;;4977292;28;20401;-69
2023/12/20 11:30:59;;;;;;;5.57;2.30;;;9.50;99.90;;;;;;4969238;28;20191;-70
2023/12/20 11:33:37;;;;;;;8.10;2.70;;;9.50;99.90;;;;;;4974700;28;20248;-71
2023/12/20 11:36:12;;;;;;;7.40;2.28;;;9.50;99.90;;;;;;4976820;28;20187;-71
2023/12/20 11:38:48;;;;;;;6.88;2.10;;;9.40;99.90;;;;;;4986493;28;20520;-71
2023/12/20 11:41:16;;;;;;;7.10;2.33;;;9.40;99.90;;;;;;4975141;28;20207;-71
2023/12/20 11:43:46;;;;;;;8.38;2.35;;;9.40;99.90;;;;;;4976773;28;20231;-71
2023/12/20 11:46:12;;;;;;;6.20;2.25;;;9.40;99.90;;;;;;4990140;28;20175;-69
2023/12/20 11:48:44;;;;;;;7.45;2.55;;;9.40;99.90;;;;;;4983050;28;20172;-70
2023/12/20 11:51:13;;;;;;;8.02;2.72;;;9.40;99.90;;;;;;4983144;28;20184;-71
2023/12/20 11:53:42;;;;;;;5.05;1.90;;;9.40;99.90;;;;;;4964309;28;20279;-71
2023/12/20 11:56:12;;;;;;;9.27;2.65;;;9.40;99.90;;;;;;4975518;28;20204;-71
2023/12/20 11:58:37;;;;;;;11.25;2.90;;;9.40;99.90;;;;;;4977482;28;20199;-71
2023/12/20 12:01:08;;;;;;;5.47;2.35;;;9.50;99.90;;;;;;4976067;28;20250;-69
2023/12/20 12:03:36;;;;;;;6.95;2.33;;;9.40;99.90;;;;;;4978453;28;20219;-70
2023/12/20 12:06:04;;;;;;;6.85;2.80;;;9.40;99.90;;;;;;4969513;28;20183;-70
2023/12/20 12:08:32;;;;;;;5.53;2.10;;;9.50;99.90;;;;;;4982296;28;20196;-70
2023/12/20 12:11:00;;;;;;;5.40;2.10;;;9.50;99.90;;;;;;4975818;28;20183;-71
2023/12/20 12:13:27;;;;;;;5.57;2.30;;;9.50;99.90;;;;;;4975772;28;20200;-71
2023/12/20 12:15:55;;;;;;;7.30;2.55;;;9.60;99.90;;;;;;4985050;28;20230;-70
2023/12/20 12:18:21;;;;;;;7.78;2.20;;;9.50;99.90;;;;;;4987723;28;20195;-71
2023/12/20 12:20:47;;;;;;;6.20;2.53;;;9.60;99.90;;;;;;4976293;28;20251;-70
2023/12/20 12:23:13;;;;;;;7.75;2.40;;;9.70;99.90;;;;;;4975569;28;20208;-72
2023/12/20 12:25:41;;;;;;;7.82;2.40;;;9.70;99.90;;;;;;4975816;28;20204;-71
2023/12/20 12:28:07;;;;;;;7.22;2.20;;;9.70;99.90;;;;;;4992089;28;20183;-71
2023/12/20 12:30:35;;;;;;;7.30;2.40;;;9.70;99.90;;;;;;4975866;28;20176;-71
2023/12/20 12:33:01;;;;;;;9.20;2.60;;;9.80;99.90;;;;;;4975977;28;20187;-70
2023/12/20 12:35:31;;;;;;;8.85;2.33;;;9.80;99.90;;;;;;4976180;28;20188;-71
2023/12/20 12:37:59;;;;;;;7.97;2.40;;;9.80;99.90;;;;;;4976054;28;20204;-70
2023/12/20 12:40:25;;;;;;;5.57;2.30;;;9.70;99.90;;;;;;4994752;28;20192;-70
2023/12/20 12:42:53;;;;;;;7.80;3.13;;;9.80;99.90;;;;;;4989023;28;20212;-71
2023/12/20 12:45:19;;;;;;;7.93;2.72;;;9.70;99.90;;;;;;4975814;28;20180;-71
2023/12/20 12:47:45;;;;;;;8.18;1.98;;;9.70;99.90;;;;;;4975959;28;20186;-70
2023/12/20 12:50:11;;;;;;;4.45;1.92;;;9.80;99.90;;;;;;4975409;28;20207;-71
2023/12/20 12:52:37;;;;;;;8.82;2.72;;;9.70;99.90;;;;;;4975988;28;20221;-70
2023/12/20 12:55:05;;;;;;;8.40;2.00;;;9.70;99.90;;;;;;4993055;28;20295;-71
2023/12/20 12:57:33;;;;;;;5.57;2.00;;;9.70;99.90;;;;;;4968546;28;20181;-70